Time;durP1;ratioP1;P1;durP2;ratioP2;P2;SDS_P1;SDS_P2;PMS_P1;PMS_P2;Temp;Humidity;BMP_temperature;BMP_pressure;BME280_temperature;BME280_humidity;BME280_pressure;Samples;Min_cycle;Max_cycle;Signal;HPM_P1;HPM_P2
2022/09/08 00:00:22;;;;;;;20.05;17.50;;;;;;;;;;5050637;28;20037;-60
2022/09/08 00:02:48;;;;;;;23.45;19.77;;;;;;;;;;5043788;28;20041;-60
2022/09/08 00:05:15;;;;;;;26.50;20.30;;;;;;;;;;5030626;28;20049;-60
2022/09/08 00:07:42;;;;;;;23.30;18.92;;;;;;;;;;5030492;28;20040;-60
2022/09/08 00:10:08;;;;;;;22.92;19.17;;;;;;;;;;5029755;28;20061;-60
2022/09/08 00:12:37;;;;;;;21.45;19.20;;;;;;;;;;5030583;28;20447;-60
2022/09/08 00:15:03;;;;;;;22.33;19.67;;;;;;;;;;5030451;28;20255;-60
2022/09/08 00:17:29;;;;;;;26.80;20.70;;;;;;;;;;5029685;28;20063;-60
2022/09/08 00:19:55;;;;;;;23.30;20.88;;;;;;;;;;5030277;28;20046;-60
2022/09/08 00:22:21;;;;;;;23.30;20.83;;;;;;;;;;5030362;28;20033;-60
2022/09/08 00:24:47;;;;;;;25.55;21.70;;;;;;;;;;5031199;28;20041;-60
2022/09/08 00:27:14;;;;;;;26.85;22.00;;;;;;;;;;5052963;28;20041;-60
2022/09/08 00:29:40;;;;;;;26.40;23.08;;;;;;;;;;5054274;28;20155;-61
2022/09/08 00:32:06;;;;;;;27.88;22.48;;;;;;;;;;5053870;28;20041;-60
2022/09/08 00:34:34;;;;;;;25.95;21.98;;;;;;;;;;5054242;28;20052;-60
2022/09/08 00:37:00;;;;;;;25.00;22.02;;;;;;;;;;5054124;28;20056;-60
2022/09/08 00:39:26;;;;;;;26.02;22.77;;;;;;;;;;5053397;28;20203;-60
2022/09/08 00:41:52;;;;;;;26.92;22.38;;;;;;;;;;5054095;28;20047;-59
2022/09/08 00:44:39;;;;;;;25.67;22.88;;;;;;;;;;5053974;28;20518;-61
2022/09/08 00:47:09;;;;;;;26.83;23.70;;;;;;;;;;5053414;28;20087;-60
2022/09/08 00:49:35;;;;;;;29.02;23.92;;;;;;;;;;5053797;28;20040;-60
2022/09/08 00:52:02;;;;;;;26.98;24.08;;;;;;;;;;5053863;28;20127;-60
2022/09/08 00:54:29;;;;;;;28.85;24.30;;;;;;;;;;5053524;28;20469;-60
2022/09/08 00:56:55;;;;;;;27.05;24.13;;;;;;;;;;5053753;28;20151;-60
2022/09/08 00:59:23;;;;;;;29.30;25.52;;;;;;;;;;5053406;28;20109;-61
2022/09/08 01:01:50;;;;;;;30.88;24.25;;;;;;;;;;5053413;28;20094;-60
2022/09/08 01:04:16;;;;;;;34.83;26.20;;;;;;;;;;5035105;28;20496;-61
2022/09/08 01:12:43;;;;;;;28.58;24.98;;;;;;;;;;5033688;28;20567;-60
2022/09/08 01:15:11;;;;;;;31.20;25.38;;;;;;;;;;5032897;28;20083;-60
2022/09/08 01:17:38;;;;;;;27.25;24.05;;;;;;;;;;5033340;28;20046;-60
2022/09/08 01:20:07;;;;;;;28.73;25.63;;;;;;;;;;5033374;28;20801;-60
2022/09/08 01:22:36;;;;;;;29.67;24.92;;;;;;;;;;5033183;28;20607;-60
2022/09/08 01:25:15;;;;;;;32.80;26.55;;;;;;;;;;5015876;28;20053;-60
2022/09/08 01:27:41;;;;;;;30.27;25.83;;;;;;;;;;5053184;28;20037;-60
2022/09/08 01:30:08;;;;;;;31.90;27.10;;;;;;;;;;5052420;28;20029;-60
2022/09/08 01:32:35;;;;;;;33.53;29.15;;;;;;;;;;5052867;28;20040;-60
2022/09/08 01:35:02;;;;;;;32.50;28.10;;;;;;;;;;5051715;28;20384;-60
2022/09/08 01:37:28;;;;;;;31.55;28.00;;;;;;;;;;5052110;28;20045;-60
2022/09/08 01:39:56;;;;;;;32.40;26.40;;;;;;;;;;5052373;28;20575;-60
2022/09/08 01:42:22;;;;;;;31.27;26.70;;;;;;;;;;5052396;28;20445;-60
2022/09/08 01:44:48;;;;;;;31.92;27.63;;;;;;;;;;5051595;28;20065;-60
2022/09/08 01:47:14;;;;;;;29.45;26.27;;;;;;;;;;5052079;28;20511;-60
2022/09/08 01:49:40;;;;;;;34.35;28.83;;;;;;;;;;5052249;28;20041;-60
2022/09/08 01:52:06;;;;;;;34.63;28.35;;;;;;;;;;5052251;28;20475;-60
2022/09/08 01:54:32;;;;;;;32.70;27.58;;;;;;;;;;5052483;28;20041;-60
2022/09/08 01:56:58;;;;;;;32.47;28.95;;;;;;;;;;5052556;28;20041;-60
2022/09/08 01:59:24;;;;;;;33.08;27.30;;;;;;;;;;5052122;28;20490;-60
2022/09/08 02:01:50;;;;;;;34.30;27.60;;;;;;;;;;5052531;28;20052;-60
2022/09/08 02:04:17;;;;;;;33.03;28.38;;;;;;;;;;5033968;28;20251;-60
2022/09/08 02:06:43;;;;;;;30.40;26.38;;;;;;;;;;5032063;28;20427;-60
2022/09/08 02:09:09;;;;;;;31.35;27.00;;;;;;;;;;5032321;28;20594;-60
2022/09/08 02:11:35;;;;;;;31.13;26.75;;;;;;;;;;5032486;28;20048;-60
2022/09/08 02:14:02;;;;;;;31.67;27.17;;;;;;;;;;5031830;28;20147;-60
2022/09/08 02:16:29;;;;;;;32.85;28.02;;;;;;;;;;5032220;28;20051;-60
2022/09/08 02:18:56;;;;;;;34.78;29.83;;;;;;;;;;5032399;28;20142;-61
2022/09/08 02:21:24;;;;;;;30.10;26.63;;;;;;;;;;5031909;28;20037;-61
2022/09/08 02:23:50;;;;;;;36.13;30.40;;;;;;;;;;5032277;28;20048;-60
2022/09/08 02:26:21;;;;;;;32.00;26.95;;;;;;;;;;5025141;28;20141;-60
2022/09/08 02:28:48;;;;;;;34.92;29.40;;;;;;;;;;5051317;28;20084;-61
2022/09/08 02:31:14;;;;;;;33.90;28.90;;;;;;;;;;5052061;28;20369;-61
2022/09/08 02:33:40;;;;;;;35.45;29.00;;;;;;;;;;5051994;28;20037;-61
2022/09/08 02:36:07;;;;;;;34.85;28.15;;;;;;;;;;5051541;28;20045;-61
2022/09/08 02:38:33;;;;;;;34.67;29.05;;;;;;;;;;5051835;28;20040;-61
2022/09/08 02:41:00;;;;;;;35.25;30.13;;;;;;;;;;5051852;28;20044;-61
2022/09/08 02:43:26;;;;;;;37.13;30.10;;;;;;;;;;5051686;28;20061;-61
2022/09/08 02:45:52;;;;;;;35.85;30.15;;;;;;;;;;5051794;28;20128;-61
2022/09/08 02:48:18;;;;;;;35.60;30.92;;;;;;;;;;5050623;28;20395;-61
2022/09/08 02:50:45;;;;;;;37.30;30.05;;;;;;;;;;5051637;28;20055;-61
2022/09/08 02:53:11;;;;;;;32.75;29.15;;;;;;;;;;5051273;28;20044;-61
2022/09/08 02:55:40;;;;;;;38.85;30.55;;;;;;;;;;5051537;28;20041;-60
2022/09/08 02:58:07;;;;;;;34.97;29.73;;;;;;;;;;5051207;28;20351;-61
2022/09/08 03:00:34;;;;;;;34.55;30.80;;;;;;;;;;5051016;28;20032;-61
2022/09/08 03:03:00;;;;;;;35.45;30.30;;;;;;;;;;5043568;28;20052;-61
2022/09/08 03:05:26;;;;;;;37.08;30.73;;;;;;;;;;5031466;28;20118;-61
2022/09/08 03:07:53;;;;;;;38.20;31.45;;;;;;;;;;5031094;28;20037;-61
2022/09/08 03:10:23;;;;;;;39.58;32.10;;;;;;;;;;5031035;28;20060;-61
2022/09/08 03:12:50;;;;;;;35.67;29.13;;;;;;;;;;5031086;28;20046;-60
2022/09/08 03:15:16;;;;;;;38.83;31.30;;;;;;;;;;5030926;28;20048;-61
2022/09/08 03:17:42;;;;;;;38.55;31.30;;;;;;;;;;5012978;28;20042;-61
2022/09/08 03:20:08;;;;;;;40.10;31.52;;;;;;;;;;5031174;28;20044;-61
2022/09/08 03:22:34;;;;;;;37.28;30.98;;;;;;;;;;5030749;28;20052;-61
2022/09/08 03:25:02;;;;;;;39.22;33.45;;;;;;;;;;5031440;28;20037;-61
2022/09/08 03:27:28;;;;;;;39.58;32.53;;;;;;;;;;5050878;28;20555;-61
2022/09/08 03:29:54;;;;;;;39.05;31.35;;;;;;;;;;5050608;28;20127;-61
2022/09/08 03:32:20;;;;;;;39.17;32.75;;;;;;;;;;5050928;28;20108;-61
2022/09/08 03:34:46;;;;;;;39.03;33.38;;;;;;;;;;5050961;28;20056;-61
2022/09/08 03:37:13;;;;;;;37.10;31.98;;;;;;;;;;5049912;28;20076;-61
2022/09/08 03:39:39;;;;;;;39.35;32.70;;;;;;;;;;5050563;28;20041;-61
2022/09/08 03:42:05;;;;;;;41.72;33.35;;;;;;;;;;5050803;28;20487;-61
2022/09/08 03:44:32;;;;;;;38.17;32.83;;;;;;;;;;5050481;28;20150;-61
2022/09/08 03:46:58;;;;;;;39.97;31.70;;;;;;;;;;5050317;28;20045;-61
2022/09/08 03:49:24;;;;;;;40.10;32.10;;;;;;;;;;5032657;28;20454;-61
2022/09/08 03:51:50;;;;;;;42.60;33.60;;;;;;;;;;5050339;28;20041;-61
2022/09/08 03:57:01;;;;;;;41.28;32.60;;;;;;;;;;5050352;28;20045;-61
2022/09/08 03:59:29;;;;;;;35.97;30.90;;;;;;;;;;5049841;28;20772;-61
2022/09/08 04:01:56;;;;;;;38.45;32.30;;;;;;;;;;5050533;28;20072;-61
2022/09/08 04:04:23;;;;;;;36.22;31.45;;;;;;;;;;5031255;28;20412;-61
2022/09/08 04:06:49;;;;;;;37.10;31.58;;;;;;;;;;5030074;28;20037;-61
2022/09/08 04:09:15;;;;;;;40.40;33.17;;;;;;;;;;5030186;28;20061;-61
2022/09/08 04:11:41;;;;;;;39.75;32.78;;;;;;;;;;5030499;28;20072;-61
2022/09/08 04:14:07;;;;;;;36.00;31.05;;;;;;;;;;5030073;28;20464;-61
2022/09/08 04:16:33;;;;;;;38.22;31.55;;;;;;;;;;5030065;28;20041;-61
2022/09/08 04:18:59;;;;;;;38.67;32.35;;;;;;;;;;5030583;28;20092;-61
2022/09/08 04:21:25;;;;;;;40.97;33.92;;;;;;;;;;5030132;28;20041;-61
2022/09/08 04:23:52;;;;;;;45.95;35.25;;;;;;;;;;5030464;28;20504;-61
2022/09/08 04:26:18;;;;;;;41.05;32.05;;;;;;;;;;5041309;28;20064;-61
2022/09/08 04:28:44;;;;;;;42.50;34.47;;;;;;;;;;5049718;28;20044;-61
2022/09/08 04:31:12;;;;;;;37.53;32.05;;;;;;;;;;5049716;28;20071;-61
2022/09/08 04:33:38;;;;;;;40.90;32.45;;;;;;;;;;5049843;28;20045;-60
2022/09/08 04:36:12;;;;;;;40.03;33.17;;;;;;;;;;5049716;28;20623;-61
2022/09/08 04:38:38;;;;;;;40.45;33.78;;;;;;;;;;5049705;28;20040;-61
2022/09/08 04:41:05;;;;;;;41.25;33.72;;;;;;;;;;5050339;28;20056;-61
2022/09/08 04:43:31;;;;;;;41.08;33.60;;;;;;;;;;5049483;28;20120;-61
2022/09/08 04:46:04;;;;;;;41.90;34.47;;;;;;;;;;5049907;28;20049;-61
2022/09/08 04:48:31;;;;;;;39.85;33.08;;;;;;;;;;5032103;28;20076;-61
2022/09/08 04:50:57;;;;;;;40.70;33.63;;;;;;;;;;5049659;28;20045;-61
2022/09/08 04:53:24;;;;;;;38.85;33.58;;;;;;;;;;5050025;28;20037;-61
2022/09/08 04:55:50;;;;;;;42.83;34.47;;;;;;;;;;5050023;28;20041;-61
2022/09/08 04:58:16;;;;;;;44.03;34.95;;;;;;;;;;5049171;28;20044;-61
2022/09/08 05:00:42;;;;;;;42.78;35.00;;;;;;;;;;5050073;28;20033;-61
2022/09/08 05:03:08;;;;;;;46.40;35.55;;;;;;;;;;5022877;28;20045;-61
2022/09/08 05:05:38;;;;;;;43.83;36.13;;;;;;;;;;5029498;28;20040;-61
2022/09/08 05:08:04;;;;;;;43.00;33.97;;;;;;;;;;5029837;28;20464;-61
2022/09/08 05:10:32;;;;;;;41.83;34.50;;;;;;;;;;5028219;28;20049;-61
2022/09/08 05:12:58;;;;;;;43.67;35.20;;;;;;;;;;5051999;28;20045;-61
2022/09/08 05:15:25;;;;;;;43.53;33.47;;;;;;;;;;5048635;28;20435;-61
2022/09/08 05:17:51;;;;;;;45.78;34.90;;;;;;;;;;5052085;28;20500;-61
2022/09/08 05:20:17;;;;;;;43.78;35.00;;;;;;;;;;5032774;28;20096;-61
2022/09/08 05:22:43;;;;;;;39.58;32.95;;;;;;;;;;5033184;28;20033;-61
2022/09/08 05:25:10;;;;;;;41.47;33.95;;;;;;;;;;5034322;28;20044;-61
2022/09/08 05:27:36;;;;;;;41.22;33.10;;;;;;;;;;5045662;28;20033;-61
2022/09/08 05:30:02;;;;;;;45.88;36.70;;;;;;;;;;5032700;28;20480;-61
2022/09/08 05:32:28;;;;;;;41.70;35.88;;;;;;;;;;5041978;28;20090;-61
2022/09/08 05:34:54;;;;;;;44.15;36.30;;;;;;;;;;5052452;28;20049;-61
2022/09/08 05:37:20;;;;;;;41.58;34.13;;;;;;;;;;5052541;28;20045;-61
2022/09/08 05:39:46;;;;;;;45.28;36.85;;;;;;;;;;5052661;28;20099;-61
2022/09/08 05:42:13;;;;;;;44.92;34.17;;;;;;;;;;5052447;28;20052;-61
2022/09/08 05:44:39;;;;;;;43.92;34.20;;;;;;;;;;5052511;28;20033;-61
2022/09/08 05:47:05;;;;;;;46.80;37.30;;;;;;;;;;5050951;28;20650;-62
2022/09/08 05:49:32;;;;;;;44.83;38.15;;;;;;;;;;5051047;28;20111;-62
2022/09/08 05:51:58;;;;;;;45.45;36.22;;;;;;;;;;5051503;28;20040;-65
2022/09/08 05:54:24;;;;;;;45.22;35.72;;;;;;;;;;5052118;28;20479;-63
2022/09/08 05:56:50;;;;;;;61.20;40.85;;;;;;;;;;5035387;28;20480;-63
2022/09/08 05:59:16;;;;;;;52.03;35.38;;;;;;;;;;5031711;28;20460;-63
2022/09/08 06:01:42;;;;;;;76.50;44.80;;;;;;;;;;5037524;28;20049;-62
2022/09/08 06:04:08;;;;;;;56.75;41.95;;;;;;;;;;5043847;28;20455;-63
2022/09/08 06:06:35;;;;;;;56.55;40.75;;;;;;;;;;5047351;28;20097;-63
2022/09/08 06:09:02;;;;;;;64.68;44.50;;;;;;;;;;5051227;28;20064;-63
2022/09/08 06:11:29;;;;;;;61.80;44.58;;;;;;;;;;5051324;28;20128;-62
2022/09/08 06:13:55;;;;;;;73.22;48.67;;;;;;;;;;5044071;28;20166;-64
2022/09/08 06:16:21;;;;;;;62.25;43.03;;;;;;;;;;5042903;28;20036;-63
2022/09/08 06:18:48;;;;;;;60.47;43.25;;;;;;;;;;5051169;28;20052;-63
2022/09/08 06:21:18;;;;;;;63.30;44.47;;;;;;;;;;5050928;28;20048;-64
2022/09/08 06:23:48;;;;;;;74.47;48.10;;;;;;;;;;5051770;28;20037;-64
2022/09/08 06:26:14;;;;;;;74.78;48.15;;;;;;;;;;5040800;28;20038;-63
2022/09/08 06:28:43;;;;;;;76.32;48.50;;;;;;;;;;5040229;28;20138;-63
2022/09/08 06:31:09;;;;;;;66.20;44.35;;;;;;;;;;5037719;28;20073;-62
2022/09/08 06:33:40;;;;;;;62.75;43.72;;;;;;;;;;5037384;28;20398;-63
2022/09/08 06:36:06;;;;;;;70.70;45.40;;;;;;;;;;5050764;28;20052;-62
2022/09/08 06:38:36;;;;;;;62.05;42.10;;;;;;;;;;5046377;28;20154;-63
2022/09/08 06:41:09;;;;;;;62.30;43.10;;;;;;;;;;5050018;28;20138;-63
2022/09/08 06:43:38;;;;;;;56.90;39.75;;;;;;;;;;5031330;28;20576;-64
2022/09/08 06:46:31;;;;;;;55.72;39.35;;;;;;;;;;5030569;28;20135;-62
2022/09/08 06:48:58;;;;;;;60.75;40.05;;;;;;;;;;5028235;28;20057;-64
2022/09/08 06:51:31;;;;;;;65.60;41.33;;;;;;;;;;5047301;28;20082;-64
2022/09/08 06:54:09;;;;;;;57.28;41.17;;;;;;;;;;5041782;28;20044;-64
2022/09/08 06:56:38;;;;;;;57.58;39.80;;;;;;;;;;5049839;28;20171;-64
2022/09/08 06:59:09;;;;;;;64.22;37.20;;;;;;;;;;5030138;28;20049;-64
2022/09/08 07:01:40;;;;;;;57.70;38.65;;;;;;;;;;5036835;28;20105;-64
2022/09/08 07:04:15;;;;;;;53.58;36.92;;;;;;;;;;5033277;28;20038;-64
2022/09/08 07:06:48;;;;;;;54.83;36.53;;;;;;;;;;5037002;28;20045;-64
2022/09/08 07:09:20;;;;;;;48.67;33.83;;;;;;;;;;5046798;28;20080;-64
2022/09/08 07:11:47;;;;;;;42.67;31.13;;;;;;;;;;5049957;28;20083;-62
2022/09/08 07:14:19;;;;;;;47.13;33.08;;;;;;;;;;5050040;28;20033;-62
2022/09/08 07:16:48;;;;;;;50.47;32.88;;;;;;;;;;5043907;28;20040;-63
2022/09/08 07:19:39;;;;;;;46.67;32.28;;;;;;;;;;5039012;28;20052;-63
2022/09/08 07:22:05;;;;;;;53.80;34.47;;;;;;;;;;5045483;28;20041;-63
2022/09/08 07:24:36;;;;;;;46.72;31.90;;;;;;;;;;5050229;28;20033;-63
2022/09/08 07:27:04;;;;;;;49.95;35.08;;;;;;;;;;5049408;28;20673;-63
2022/09/08 07:29:34;;;;;;;58.95;39.38;;;;;;;;;;5034714;28;20044;-61
2022/09/08 07:32:02;;;;;;;56.72;38.55;;;;;;;;;;5039465;28;20178;-62
2022/09/08 07:34:30;;;;;;;62.45;40.38;;;;;;;;;;5049127;28;20045;-62
2022/09/08 07:37:02;;;;;;;55.22;39.33;;;;;;;;;;5049540;28;20037;-62
2022/09/08 07:39:46;;;;;;;57.35;40.70;;;;;;;;;;5029959;28;20049;-62
2022/09/08 07:42:15;;;;;;;58.42;39.20;;;;;;;;;;5030064;28;20141;-61
2022/09/08 07:44:41;;;;;;;60.05;40.22;;;;;;;;;;5030002;28;20396;-62
2022/09/08 07:47:26;;;;;;;60.33;40.33;;;;;;;;;;5043961;28;20045;-62
2022/09/08 07:49:52;;;;;;;54.08;37.00;;;;;;;;;;5044789;28;20037;-59
2022/09/08 07:52:36;;;;;;;55.83;37.78;;;;;;;;;;5041907;28;20064;-62
2022/09/08 07:55:03;;;;;;;59.47;39.40;;;;;;;;;;5047506;28;20084;-62
2022/09/08 07:57:37;;;;;;;60.58;39.67;;;;;;;;;;5048784;28;20138;-61
2022/09/08 08:00:08;;;;;;;57.17;38.85;;;;;;;;;;5049129;28;20049;-64
2022/09/08 08:02:34;;;;;;;67.20;42.33;;;;;;;;;;5044713;28;20042;-63
2022/09/08 08:05:21;;;;;;;60.72;41.67;;;;;;;;;;5041958;28;20529;-64
2022/09/08 08:07:56;;;;;;;55.15;38.78;;;;;;;;;;5032550;28;20592;-64
2022/09/08 08:10:25;;;;;;;64.35;40.35;;;;;;;;;;5042422;28;20211;-63
2022/09/08 08:12:58;;;;;;;66.45;40.83;;;;;;;;;;5038719;28;20045;-63
2022/09/08 08:15:30;;;;;;;79.88;45.78;;;;;;;;;;5029745;28;20124;-63
2022/09/08 08:17:56;;;;;;;78.82;45.83;;;;;;;;;;5032199;28;20040;-62
2022/09/08 08:20:22;;;;;;;71.10;43.67;;;;;;;;;;5048911;28;20511;-61
2022/09/08 08:23:07;;;;;;;67.03;43.67;;;;;;;;;;5038584;28;20500;-61
2022/09/08 08:25:51;;;;;;;73.82;43.70;;;;;;;;;;5033288;28;20040;-63
2022/09/08 08:28:18;;;;;;;65.43;43.17;;;;;;;;;;5041630;28;20033;-62
2022/09/08 08:30:50;;;;;;;80.40;45.20;;;;;;;;;;5044287;28;20045;-62
2022/09/08 08:33:25;;;;;;;82.88;44.03;;;;;;;;;;5046169;28;20047;-62
2022/09/08 08:35:57;;;;;;;64.47;40.75;;;;;;;;;;5032528;28;20047;-62
2022/09/08 08:38:29;;;;;;;54.43;36.90;;;;;;;;;;5044401;28;20037;-62
2022/09/08 08:40:56;;;;;;;49.50;33.95;;;;;;;;;;5036786;28;20037;-62
2022/09/08 08:43:25;;;;;;;50.85;33.03;;;;;;;;;;5035640;28;20052;-61
2022/09/08 08:46:10;;;;;;;48.88;32.33;;;;;;;;;;5032550;28;20041;-61
2022/09/08 08:49:00;;;;;;;42.90;27.38;;;;;;;;;;5033196;28;20500;-61
2022/09/08 08:51:26;;;;;;;38.33;26.83;;;;;;;;;;5033306;28;20827;-61
2022/09/08 08:54:08;;;;;;;38.53;25.63;;;;;;;;;;5035643;28;20048;-62
2022/09/08 08:56:38;;;;;;;31.52;21.35;;;;;;;;;;5038271;28;20119;-61
2022/09/08 08:59:13;;;;;;;33.63;21.15;;;;;;;;;;5049099;28;20037;-61
2022/09/08 09:01:52;;;;;;;29.70;20.45;;;;;;;;;;5047015;28;20081;-63
2022/09/08 09:04:21;;;;;;;25.83;18.40;;;;;;;;;;5051403;28;20036;-63
2022/09/08 09:07:10;;;;;;;30.67;18.02;;;;;;;;;;5034438;28;20045;-62
2022/09/08 09:09:50;;;;;;;23.48;17.13;;;;;;;;;;5045474;28;20057;-62
2022/09/08 09:12:26;;;;;;;24.40;16.50;;;;;;;;;;5050222;28;20048;-62
2022/09/08 09:15:11;;;;;;;25.13;16.73;;;;;;;;;;5052580;28;20076;-62
2022/09/08 09:17:50;;;;;;;20.05;16.25;;;;;;;;;;5034291;28;20049;-63
2022/09/08 09:20:25;;;;;;;19.92;14.70;;;;;;;;;;5032412;28;20384;-62
2022/09/08 09:22:54;;;;;;;19.33;14.35;;;;;;;;;;5032515;28;20033;-62
2022/09/08 09:25:20;;;;;;;17.13;12.45;;;;;;;;;;5033410;28;20025;-62
2022/09/08 09:27:47;;;;;;;20.40;14.02;;;;;;;;;;5033356;28;20423;-62
2022/09/08 09:30:18;;;;;;;18.35;11.55;;;;;;;;;;5042543;28;20049;-62
2022/09/08 09:32:57;;;;;;;17.80;13.23;;;;;;;;;;5032292;28;20045;-62
2022/09/08 09:35:23;;;;;;;14.13;11.00;;;;;;;;;;5032220;28;20268;-63
2022/09/08 09:37:52;;;;;;;17.45;12.48;;;;;;;;;;5032863;28;20041;-63
2022/09/08 09:40:44;;;;;;;14.63;11.35;;;;;;;;;;5051504;28;20103;-62
2022/09/08 09:43:20;;;;;;;12.20;10.60;;;;;;;;;;5044651;28;20041;-62
2022/09/08 09:45:52;;;;;;;11.90;9.07;;;;;;;;;;5046862;28;20033;-62
2022/09/08 09:48:21;;;;;;;11.27;8.37;;;;;;;;;;5046660;28;20045;-62
2022/09/08 09:50:56;;;;;;;9.90;8.23;;;;;;;;;;5046742;28;20036;-62
2022/09/08 09:53:25;;;;;;;10.50;8.15;;;;;;;;;;5042293;28;20034;-61
2022/09/08 09:56:06;;;;;;;9.57;7.72;;;;;;;;;;5048787;28;20041;-62
2022/09/08 09:58:50;;;;;;;9.38;7.93;;;;;;;;;;5044243;28;20124;-62
2022/09/08 10:01:29;;;;;;;8.02;7.22;;;;;;;;;;5044410;28;20041;-60
2022/09/08 10:03:58;;;;;;;9.07;7.10;;;;;;;;;;5046813;28;20494;-62
2022/09/08 10:06:25;;;;;;;7.65;6.72;;;;;;;;;;5040458;28;20044;-61
2022/09/08 10:08:51;;;;;;;9.52;5.85;;;;;;;;;;5049618;28;20678;-63
2022/09/08 10:11:36;;;;;;;8.13;5.50;;;;;;;;;;5045404;28;20052;-62
2022/09/08 10:14:20;;;;;;;11.15;5.47;;;;;;;;;;5044521;28;20048;-63
2022/09/08 10:17:05;;;;;;;5.43;4.00;;;;;;;;;;5033143;28;20053;-61
2022/09/08 10:19:50;;;;;;;8.38;4.10;;;;;;;;;;5044632;28;20053;-61
2022/09/08 10:22:16;;;;;;;7.10;4.13;;;;;;;;;;5037252;28;20548;-61
2022/09/08 10:24:58;;;;;;;7.43;4.43;;;;;;;;;;5045309;28;20120;-60
2022/09/08 10:27:24;;;;;;;5.70;4.15;;;;;;;;;;5044704;28;20048;-62
2022/09/08 10:30:09;;;;;;;7.50;3.65;;;;;;;;;;5049517;28;20091;-61
2022/09/08 10:32:35;;;;;;;7.30;4.22;;;;;;;;;;5047681;28;20052;-63
2022/09/08 10:35:04;;;;;;;5.97;3.67;;;;;;;;;;5049724;28;20376;-63
2022/09/08 10:37:30;;;;;;;5.72;4.07;;;;;;;;;;5049430;28;20044;-62
2022/09/08 10:40:04;;;;;;;4.40;3.15;;;;;;;;;;5048930;28;20578;-64
2022/09/08 10:42:36;;;;;;;6.57;3.60;;;;;;;;;;5035377;28;20499;-63
2022/09/08 10:45:02;;;;;;;3.80;3.42;;;;;;;;;;5030109;28;20038;-63
2022/09/08 10:47:46;;;;;;;5.15;2.72;;;;;;;;;;5044091;28;20044;-63
2022/09/08 10:50:18;;;;;;;3.85;2.70;;;;;;;;;;5042458;28;20044;-63
2022/09/08 10:53:19;;;;;;;4.32;2.88;;;;;;;;;;5041530;28;20068;-63
2022/09/08 10:55:54;;;;;;;4.18;2.70;;;;;;;;;;4962391;28;20073;-63
2022/09/08 10:58:20;;;;;;;3.28;2.78;;;;;;;;;;5032218;28;20052;-62
2022/09/08 11:01:04;;;;;;;4.65;3.15;;;;;;;;;;5042228;28;20499;-62
2022/09/08 11:03:33;;;;;;;4.65;3.28;;;;;;;;;;5029324;28;20033;-61
2022/09/08 11:06:02;;;;;;;6.38;3.72;;;;;;;;;;5048728;28;20033;-60
2022/09/08 11:08:44;;;;;;;5.63;4.25;;;;;;;;;;5035473;28;20137;-62
2022/09/08 11:11:13;;;;;;;5.65;4.32;;;;;;;;;;5035621;28;20041;-64
2022/09/08 11:14:05;;;;;;;6.47;4.93;;;;;;;;;;5049383;28;20152;-62
2022/09/08 11:16:32;;;;;;;;;;;;;;;;;;5028759;28;20361;-62
2022/09/08 11:19:19;;;;;;;5.97;4.30;;;;;;;;;;5033007;28;20003;-62
2022/09/08 11:22:23;;;;;;;4.97;4.13;;;;;;;;;;5041585;28;20095;-62
2022/09/08 11:25:16;;;;;;;5.72;3.92;;;;;;;;;;4947777;29;20045;-62
2022/09/08 11:27:42;;;;;;;5.70;4.13;;;;;;;;;;4942564;28;20047;-62
2022/09/08 11:30:27;;;;;;;5.45;3.55;;;;;;;;;;5011322;28;20041;-63
2022/09/08 11:33:12;;;;;;;5.35;4.03;;;;;;;;;;5035465;28;20036;-64
2022/09/08 11:36:13;;;;;;;5.63;4.20;;;;;;;;;;5038270;28;20049;-63
2022/09/08 11:38:58;;;;;;;6.97;4.20;;;;;;;;;;4947630;28;20047;-63
2022/09/08 11:41:23;;;;;;;4.38;3.25;;;;;;;;;;5030721;28;20061;-62
2022/09/08 11:44:08;;;;;;;5.78;4.07;;;;;;;;;;5031085;28;20404;-63
2022/09/08 11:46:53;;;;;;;6.07;4.03;;;;;;;;;;5029095;28;20068;-62
2022/09/08 11:49:27;;;;;;;6.22;4.05;;;;;;;;;;5043446;28;20061;-63
2022/09/08 11:52:06;;;;;;;8.65;4.10;;;;;;;;;;5046561;28;20124;-64
2022/09/08 11:54:50;;;;;;;4.18;3.72;;;;;;;;;;5045922;28;20044;-63
2022/09/08 11:57:37;;;;;;;6.85;4.00;;;;;;;;;;5049108;28;20049;-62
2022/09/08 12:00:21;;;;;;;6.82;4.45;;;;;;;;;;5036708;28;20488;-62
2022/09/08 12:03:13;;;;;;;7.65;5.25;;;;;;;;;;5029194;28;20596;-63
2022/09/08 12:05:42;;;;;;;8.15;5.15;;;;;;;;;;5010882;28;20061;-63
2022/09/08 12:08:24;;;;;;;8.55;5.15;;;;;;;;;;5035724;28;20064;-63
2022/09/08 12:11:03;;;;;;;8.70;5.88;;;;;;;;;;5038438;28;20430;-63
2022/09/08 12:13:29;;;;;;;6.55;5.28;;;;;;;;;;5047486;28;20045;-65
2022/09/08 12:16:04;;;;;;;8.73;6.57;;;;;;;;;;5048328;28;20128;-65
2022/09/08 12:18:37;;;;;;;10.50;7.10;;;;;;;;;;5048135;28;20037;-63
2022/09/08 12:21:32;;;;;;;9.93;7.65;;;;;;;;;;5048407;28;20487;-61
2022/09/08 12:24:04;;;;;;;11.00;8.48;;;;;;;;;;5035399;28;20405;-62
2022/09/08 12:26:31;;;;;;;10.00;7.75;;;;;;;;;;5051545;28;20041;-62
2022/09/08 12:29:13;;;;;;;10.13;8.35;;;;;;;;;;5047052;28;20049;-61
2022/09/08 12:32:02;;;;;;;12.95;9.73;;;;;;;;;;5040214;28;20436;-62
2022/09/08 12:34:40;;;;;;;14.18;9.40;;;;;;;;;;5020280;28;20085;-62
2022/09/08 12:37:13;;;;;;;11.50;9.07;;;;;;;;;;5038694;28;20067;-62
2022/09/08 12:39:38;;;;;;;13.70;10.13;;;;;;;;;;5044840;28;20069;-63
2022/09/08 12:42:04;;;;;;;13.23;10.60;;;;;;;;;;5047684;28;20134;-63
2022/09/08 12:44:48;;;;;;;14.88;10.60;;;;;;;;;;5039019;28;20424;-63
2022/09/08 12:47:33;;;;;;;10.25;9.15;;;;;;;;;;5052460;28;20282;-63
2022/09/08 12:50:14;;;;;;;14.60;10.32;;;;;;;;;;5034720;28;20090;-63
2022/09/08 12:52:56;;;;;;;13.77;9.70;;;;;;;;;;5047700;28;20037;-64
2022/09/08 12:55:42;;;;;;;14.73;11.07;;;;;;;;;;5048139;28;20041;-64
2022/09/08 12:58:08;;;;;;;16.52;11.55;;;;;;;;;;5015745;28;20048;-63
2022/09/08 13:00:53;;;;;;;14.93;11.20;;;;;;;;;;5050019;28;20396;-62
2022/09/08 13:03:26;;;;;;;13.18;9.73;;;;;;;;;;5036267;28;20059;-62
2022/09/08 13:05:58;;;;;;;17.27;11.18;;;;;;;;;;5044328;28;20718;-62
2022/09/08 13:08:27;;;;;;;;;;;;;;;;;;5051875;28;20072;-63
2022/09/08 13:10:57;;;;;;;14.95;12.05;;;;;;;;;;5050121;28;20264;-62
2022/09/08 13:13:34;;;;;;;15.32;11.52;;;;;;;;;;5032428;28;20121;-62
2022/09/08 13:16:03;;;;;;;16.38;11.82;;;;;;;;;;5049766;28;20064;-62
2022/09/08 13:18:41;;;;;;;18.40;12.00;;;;;;;;;;5051989;28;20083;-62
2022/09/08 13:21:26;;;;;;;18.80;12.00;;;;;;;;;;5043954;28;20045;-63
2022/09/08 13:24:00;;;;;;;17.17;13.00;;;;;;;;;;5042863;28;20041;-62
2022/09/08 13:26:38;;;;;;;18.50;12.45;;;;;;;;;;5039834;28;20033;-61
2022/09/08 13:29:16;;;;;;;16.58;12.93;;;;;;;;;;5049212;28;20136;-63
2022/09/08 13:31:48;;;;;;;16.63;12.55;;;;;;;;;;5042895;28;20037;-63
2022/09/08 13:34:23;;;;;;;18.52;12.80;;;;;;;;;;5031034;28;20131;-64
2022/09/08 13:36:49;;;;;;;15.63;12.45;;;;;;;;;;5043182;28;20037;-63
2022/09/08 13:39:15;;;;;;;14.70;11.05;;;;;;;;;;5050855;28;20077;-63
2022/09/08 13:41:47;;;;;;;16.38;12.50;;;;;;;;;;5051215;28;20197;-63
2022/09/08 13:44:28;;;;;;;14.65;12.05;;;;;;;;;;5050244;28;20037;-63
2022/09/08 13:47:13;;;;;;;18.73;13.27;;;;;;;;;;5051883;28;20119;-63
2022/09/08 13:49:58;;;;;;;15.90;12.57;;;;;;;;;;5045981;28;20128;-63
2022/09/08 13:52:26;;;;;;;15.27;11.70;;;;;;;;;;5050959;28;20098;-64
2022/09/08 13:55:05;;;;;;;19.65;13.75;;;;;;;;;;5051919;28;20052;-61
2022/09/08 13:57:37;;;;;;;16.88;12.30;;;;;;;;;;5031744;28;20081;-62
2022/09/08 14:00:14;;;;;;;20.65;13.68;;;;;;;;;;5031448;28;20504;-62
2022/09/08 14:02:40;;;;;;;17.95;13.48;;;;;;;;;;5031432;28;20076;-62
2022/09/08 14:05:20;;;;;;;18.00;14.02;;;;;;;;;;5047529;28;20043;-62
2022/09/08 14:07:59;;;;;;;21.52;13.63;;;;;;;;;;5051493;28;20051;-62
2022/09/08 14:10:48;;;;;;;17.45;13.55;;;;;;;;;;5050290;28;20107;-62
2022/09/08 14:13:20;;;;;;;9.90;8.57;;;;;;;;;;5049625;28;20471;-61
2022/09/08 14:15:54;;;;;;;11.13;8.77;;;;;;;;;;5046744;28;20038;-62
2022/09/08 14:18:32;;;;;;;14.25;9.57;;;;;;;;;;5046875;28;20056;-62
2022/09/08 14:21:00;;;;;;;9.95;7.15;;;;;;;;;;5041203;28;20045;-64
2022/09/08 14:23:45;;;;;;;6.93;6.22;;;;;;;;;;5048462;28;20037;-62
2022/09/08 14:26:22;;;;;;;10.70;8.02;;;;;;;;;;5033675;28;20045;-62
2022/09/08 14:29:08;;;;;;;9.43;8.45;;;;;;;;;;5051754;28;20136;-62
2022/09/08 14:31:39;;;;;;;10.45;7.38;;;;;;;;;;5001391;28;20128;-62
2022/09/08 14:34:24;;;;;;;6.20;5.50;;;;;;;;;;5051888;28;20037;-61
2022/09/08 14:36:53;;;;;;;10.85;7.22;;;;;;;;;;5052072;28;20037;-61
2022/09/08 14:39:20;;;;;;;7.47;5.60;;;;;;;;;;5051931;28;20040;-61
2022/09/08 14:41:50;;;;;;;6.20;5.55;;;;;;;;;;5051654;28;20037;-61
2022/09/08 14:44:36;;;;;;;6.63;5.93;;;;;;;;;;5051907;28;20041;-61
2022/09/08 14:47:08;;;;;;;6.60;5.88;;;;;;;;;;5051876;28;20048;-61
2022/09/08 14:49:37;;;;;;;8.52;5.75;;;;;;;;;;5033472;28;20106;-61
2022/09/08 14:52:22;;;;;;;7.00;5.60;;;;;;;;;;5051735;28;20045;-61
2022/09/08 14:54:57;;;;;;;6.30;4.78;;;;;;;;;;5051701;28;20048;-61
2022/09/08 14:57:30;;;;;;;7.63;5.10;;;;;;;;;;5050816;28;20199;-61